createdAt,value
2023-05-02T00:00:53.729Z,98306.34
2023-05-02T00:03:26.864Z,98307.33
2023-05-02T00:05:59.440Z,98310.43
2023-05-02T00:08:31.746Z,98304.21
2023-05-02T00:11:04.059Z,98302.52
2023-05-02T00:13:39.305Z,98298.23
2023-05-02T00:16:12.132Z,98297.69
2023-05-02T00:18:44.316Z,98298.25
2023-05-02T00:21:16.406Z,98295.69
2023-05-02T00:23:52.182Z,98291.92
2023-05-02T00:26:24.432Z,98289.14
2023-05-02T00:29:01.377Z,98293.09
2023-05-02T00:31:33.657Z,98288.13
2023-05-02T00:34:06.190Z,98288.09
2023-05-02T00:36:38.268Z,98289.51
2023-05-02T00:39:10.973Z,98286.24
2023-05-02T00:41:43.165Z,98285.09
2023-05-02T00:44:15.366Z,98280.30
2023-05-02T00:46:47.638Z,98274.95
2023-05-02T00:49:20.048Z,98272.56
2023-05-02T00:51:52.258Z,98269.27
2023-05-02T00:54:24.438Z,98268.63
2023-05-02T00:56:56.779Z,98270.93
2023-05-02T00:59:29.643Z,98266.64
2023-05-02T01:02:13.010Z,98269.84
2023-05-02T01:04:52.004Z,98265.41
2023-05-02T01:07:37.795Z,98265.67
2023-05-02T01:10:20.948Z,98261.73
2023-05-02T01:13:00.505Z,98263.70
2023-05-02T01:15:34.176Z,98267.23
2023-05-02T01:18:10.360Z,98264.52
2023-05-02T01:20:46.131Z,98263.25
2023-05-02T01:23:23.725Z,98265.70
2023-05-02T01:26:09.209Z,98266.30
2023-05-02T01:28:53.424Z,98262.32
2023-05-02T01:31:30.266Z,98260.13
2023-05-02T01:34:03.824Z,98258.77
2023-05-02T01:36:38.168Z,98253.32
2023-05-02T01:39:12.063Z,98254.75
2023-05-02T01:41:44.881Z,98248.69
2023-05-02T01:44:19.389Z,98248.31
2023-05-02T01:46:54.609Z,98245.14
2023-05-02T01:49:28.480Z,98237.38
2023-05-02T01:52:06.718Z,98235.22
2023-05-02T01:54:41.132Z,98231.04
2023-05-02T01:57:14.325Z,98228.17
2023-05-02T01:59:48.126Z,98231.25
2023-05-02T02:02:20.963Z,98229.69
2023-05-02T02:04:54.550Z,98224.89
2023-05-02T02:07:26.984Z,98224.42
2023-05-02T02:10:00.020Z,98221.85
2023-05-02T02:12:38.150Z,98217.23
2023-05-02T02:15:18.332Z,98215.68
2023-05-02T02:17:56.538Z,98216.70
2023-05-02T02:20:32.009Z,98218.60
2023-05-02T02:23:08.522Z,98217.54
2023-05-02T02:25:41.679Z,98223.02
2023-05-02T02:28:16.833Z,98223.63
2023-05-02T02:30:49.297Z,98220.37
2023-05-02T02:33:21.909Z,98220.86
2023-05-02T02:36:06.390Z,98218.58
2023-05-02T02:38:45.269Z,98217.19
2023-05-02T02:41:24.695Z,98214.63
2023-05-02T02:44:13.484Z,98218.77
2023-05-02T02:46:52.448Z,98214.56
2023-05-02T02:49:33.698Z,98212.66
2023-05-02T02:52:12.321Z,98213.09
2023-05-02T02:54:51.602Z,98208.32
2023-05-02T02:57:33.933Z,98211.05
2023-05-02T03:00:21.765Z,98211.73
2023-05-02T03:02:56.034Z,98212.46
2023-05-02T03:05:28.719Z,98210.77
2023-05-02T03:08:02.047Z,98207.84
2023-05-02T03:10:35.611Z,98208.92
2023-05-02T03:13:08.288Z,98206.96
2023-05-02T03:16:08.370Z,98205.39
2023-05-02T03:18:41.544Z,98206.67
2023-05-02T03:21:13.924Z,98203.96
2023-05-02T03:23:46.382Z,98206.48
2023-05-02T03:26:19.223Z,98207.04
2023-05-02T03:28:52.232Z,98208.02
2023-05-02T03:31:26.793Z,98209.48
2023-05-02T03:33:59.863Z,98210.39
2023-05-02T03:36:32.346Z,98213.01
2023-05-02T03:39:04.568Z,98205.87
2023-05-02T03:41:36.812Z,98206.88
2023-05-02T03:44:10.729Z,98209.07
2023-05-02T03:46:43.314Z,98207.10
2023-05-02T03:49:16.012Z,98211.17
2023-05-02T03:51:48.854Z,98211.02
2023-05-02T03:54:26.274Z,98209.62
2023-05-02T03:56:59.597Z,98207.95
2023-05-02T03:59:36.493Z,98208.39
2023-05-02T04:02:13.215Z,98205.13
2023-05-02T04:04:49.169Z,98204.95
2023-05-02T04:07:25.928Z,98203.13
2023-05-02T04:10:16.380Z,98200.83
2023-05-02T04:12:51.503Z,98198.57
2023-05-02T04:15:24.423Z,98200.02
2023-05-02T04:18:00.581Z,98192.15
2023-05-02T04:20:36.280Z,98198.78
2023-05-02T04:23:11.133Z,98199.03
2023-05-02T04:25:54.161Z,98196.74
2023-05-02T04:28:29.394Z,98200.58
2023-05-02T04:31:03.322Z,98198.17
2023-05-02T04:33:38.158Z,98202.52
2023-05-02T04:36:13.600Z,98202.51
2023-05-02T04:38:50.564Z,98200.96
2023-05-02T04:41:23.289Z,98192.98
2023-05-02T04:44:01.488Z,98191.73
2023-05-02T04:46:33.940Z,98190.99
2023-05-02T04:49:06.275Z,98187.11
2023-05-02T04:51:38.742Z,98182.91
2023-05-02T04:54:10.915Z,98173.16
2023-05-02T04:56:43.317Z,98173.05
2023-05-02T04:59:16.000Z,98177.84
2023-05-02T05:01:48.459Z,98175.85
2023-05-02T05:04:22.081Z,98176.32
2023-05-02T05:06:56.659Z,98179.48
2023-05-02T05:09:30.445Z,98186.39
2023-05-02T05:12:03.233Z,98186.52
2023-05-02T05:14:37.546Z,98181.62
2023-05-02T05:17:09.650Z,98187.66
2023-05-02T05:19:42.444Z,98195.52
2023-05-02T05:22:15.629Z,98190.02
2023-05-02T05:24:55.189Z,98195.16
2023-05-02T05:27:31.342Z,98199.09
2023-05-02T05:30:04.198Z,98202.07
2023-05-02T05:32:37.025Z,98205.19
2023-05-02T05:35:10.781Z,98197.16
2023-05-02T05:37:43.973Z,98189.15
2023-05-02T05:40:18.883Z,98179.72
2023-05-02T05:42:56.156Z,98173.48
2023-05-02T05:45:32.853Z,98178.11
2023-05-02T05:48:05.064Z,98185.69
2023-05-02T05:53:53.532Z,98188.20
2023-05-02T05:56:28.487Z,98189.59
2023-05-02T05:59:06.914Z,98184.42
2023-05-02T06:01:39.291Z,98186.38
2023-05-02T06:04:12.830Z,98181.09
2023-05-02T06:06:47.576Z,98182.65
2023-05-02T06:09:19.799Z,98169.89
2023-05-02T06:11:53.192Z,98175.33
2023-05-02T06:14:25.600Z,98173.78
2023-05-02T06:17:00.013Z,98181.07
2023-05-02T06:19:33.440Z,98186.94
2023-05-02T06:22:05.799Z,98180.37
2023-05-02T06:24:38.331Z,98181.81
2023-05-02T06:27:10.822Z,98180.05
2023-05-02T06:29:42.913Z,98177.54
2023-05-02T06:32:18.010Z,98178.71
2023-05-02T06:34:50.123Z,98176.80
2023-05-02T06:37:23.030Z,98178.35
2023-05-02T06:39:55.473Z,98182.98
2023-05-02T06:42:28.076Z,98187.56
2023-05-02T06:45:00.328Z,98179.86
2023-05-02T06:47:32.702Z,98169.66
2023-05-02T06:50:05.974Z,98176.09
2023-05-02T06:52:38.089Z,98189.50
2023-05-02T06:55:11.923Z,98186.64
2023-05-02T06:57:44.652Z,98184.58
2023-05-02T07:00:19.184Z,98173.23
2023-05-02T07:02:52.290Z,98184.07
2023-05-02T07:05:25.889Z,98192.33
2023-05-02T07:07:58.217Z,98195.12
2023-05-02T07:10:32.660Z,98198.27
2023-05-02T07:13:04.986Z,98203.46
2023-05-02T07:15:37.142Z,98204.52
2023-05-02T07:18:09.388Z,98189.15
2023-05-02T07:20:42.439Z,98191.09
2023-05-02T07:23:14.595Z,98211.35
2023-05-02T07:25:46.755Z,98216.73
2023-05-02T07:28:18.966Z,98219.11
2023-05-02T07:30:51.351Z,98220.41
2023-05-02T07:33:23.981Z,98225.13
2023-05-02T07:35:57.141Z,98215.91
2023-05-02T07:38:30.704Z,98228.76
2023-05-02T07:41:03.401Z,98242.77
2023-05-02T07:43:36.227Z,98240.00
2023-05-02T07:46:12.072Z,98236.33
2023-05-02T07:48:44.201Z,98230.14
2023-05-02T07:51:16.379Z,98229.27
2023-05-02T07:53:48.545Z,98240.23
2023-05-02T07:56:21.366Z,98241.48
2023-05-02T07:58:53.950Z,98243.84
2023-05-02T08:01:26.339Z,98243.70
2023-05-02T08:03:58.508Z,98240.82
2023-05-02T08:06:31.133Z,98240.95
2023-05-02T08:09:06.653Z,98244.13
2023-05-02T08:11:39.340Z,98240.05
2023-05-02T08:14:11.620Z,98249.55
2023-05-02T08:16:45.594Z,98257.23
2023-05-02T08:19:19.052Z,98261.21
2023-05-02T08:21:51.280Z,98251.55
2023-05-02T08:24:23.573Z,98247.11
2023-05-02T08:26:55.698Z,98242.59
2023-05-02T08:29:27.873Z,98243.36
2023-05-02T08:32:00.205Z,98251.83
2023-05-02T08:34:33.945Z,98254.07
2023-05-02T08:37:12.172Z,98248.08
2023-05-02T08:39:44.189Z,98248.52
2023-05-02T08:42:16.529Z,98246.98
2023-05-02T08:44:49.526Z,98238.79
2023-05-02T08:47:23.780Z,98240.70
2023-05-02T08:50:00.633Z,98221.42
2023-05-02T08:52:33.821Z,98220.15
2023-05-02T08:55:07.530Z,98234.75
2023-05-02T08:57:39.747Z,98240.95
2023-05-02T09:00:13.593Z,98246.13
2023-05-02T09:03:01.353Z,98241.40
2023-05-02T09:05:40.906Z,98237.25
2023-05-02T09:08:13.078Z,98245.20
2023-05-02T09:10:48.447Z,98250.02
2023-05-02T09:13:37.898Z,98254.43
2023-05-02T09:16:11.754Z,98245.14
2023-05-02T09:18:45.711Z,98242.89
2023-05-02T09:21:21.213Z,98252.06
2023-05-02T09:23:57.171Z,98263.52
2023-05-02T09:26:32.283Z,98262.02
2023-05-02T09:29:06.771Z,98259.95
2023-05-02T09:34:17.109Z,98267.40
2023-05-02T09:36:52.128Z,98271.95
2023-05-02T09:39:26.290Z,98269.33
2023-05-02T09:41:59.882Z,98275.66
2023-05-02T09:44:40.131Z,98270.58
2023-05-02T09:47:26.537Z,98277.39
2023-05-02T09:49:58.796Z,98284.15
2023-05-02T09:52:31.013Z,98286.27
2023-05-02T09:55:03.319Z,98283.25
2023-05-02T09:57:43.320Z,98279.92
2023-05-02T10:00:19.626Z,98285.38
2023-05-02T10:02:52.686Z,98290.92
2023-05-02T10:05:25.377Z,98292.06
2023-05-02T10:07:58.265Z,98296.73
2023-05-02T10:10:34.200Z,98298.83
2023-05-02T10:13:07.449Z,98299.48
2023-05-02T10:15:45.044Z,98292.00
2023-05-02T10:18:22.365Z,98296.27
2023-05-02T10:21:01.148Z,98291.42
2023-05-02T10:23:34.292Z,98280.48
2023-05-02T10:26:07.131Z,98296.05
2023-05-02T10:28:39.953Z,98288.64
2023-05-02T10:31:14.251Z,98290.51
2023-05-02T10:33:48.279Z,98303.59
2023-05-02T10:36:25.240Z,98303.09
2023-05-02T10:38:57.802Z,98311.90
2023-05-02T10:41:33.688Z,98311.32
2023-05-02T10:44:07.881Z,98303.80
2023-05-02T10:46:41.862Z,98310.73
2023-05-02T10:49:15.028Z,98314.34
2023-05-02T10:51:47.132Z,98322.06
2023-05-02T10:54:26.641Z,98331.30
2023-05-02T10:57:09.419Z,98328.71
2023-05-02T10:59:44.764Z,98336.73
2023-05-02T11:02:43.798Z,98343.27
2023-05-02T11:05:17.729Z,98354.96
2023-05-02T11:07:52.276Z,98362.27
2023-05-02T11:10:33.016Z,98363.13
2023-05-02T11:13:06.630Z,98374.48
2023-05-02T11:16:00.721Z,98374.00
2023-05-02T11:19:02.192Z,98376.29
2023-05-02T11:21:35.415Z,98373.81
2023-05-02T11:24:44.641Z,98371.18
2023-05-02T11:27:39.534Z,98372.24
2023-05-02T11:30:13.821Z,98382.65
2023-05-02T11:33:13.051Z,98385.27
2023-05-02T11:35:47.308Z,98389.31
2023-05-02T11:38:21.736Z,98390.05
2023-05-02T11:41:04.261Z,98396.05
2023-05-02T11:43:36.665Z,98396.77
2023-05-02T11:46:09.516Z,98398.01
2023-05-02T11:48:42.840Z,98397.27
2023-05-02T11:51:15.015Z,98398.65
2023-05-02T11:53:47.382Z,98403.66
2023-05-02T11:56:26.718Z,98408.14
2023-05-02T11:59:05.321Z,98417.80
2023-05-02T12:01:37.483Z,98420.92
2023-05-02T12:04:11.854Z,98423.72
2023-05-02T12:06:57.767Z,98423.31
2023-05-02T12:09:30.004Z,98432.04
2023-05-02T12:12:02.824Z,98434.79
2023-05-02T12:14:36.390Z,98437.73
2023-05-02T12:17:08.544Z,98440.06
2023-05-02T12:19:40.921Z,98445.02
2023-05-02T12:22:15.455Z,98447.02
2023-05-02T12:24:49.295Z,98460.19
2023-05-02T12:27:21.393Z,98457.48
2023-05-02T12:29:54.975Z,98457.45
2023-05-02T12:32:33.069Z,98449.48
2023-05-02T12:35:07.710Z,98453.41
2023-05-02T12:37:39.930Z,98452.44
2023-05-02T12:40:18.112Z,98446.23
2023-05-02T12:43:04.306Z,98434.54
2023-05-02T12:45:36.439Z,98429.04
2023-05-02T12:48:25.706Z,98436.64
2023-05-02T12:50:58.047Z,98431.81
2023-05-02T12:53:43.854Z,98432.36
2023-05-02T12:56:18.476Z,98436.64
2023-05-02T12:58:53.274Z,98433.13
2023-05-02T13:01:25.512Z,98426.02
2023-05-02T13:03:57.633Z,98431.17
2023-05-02T13:06:29.984Z,98430.48
2023-05-02T13:09:02.676Z,98423.16
2023-05-02T13:11:34.821Z,98419.23
2023-05-02T13:14:07.024Z,98423.98
2023-05-02T13:16:39.396Z,98430.80
2023-05-02T13:19:12.660Z,98431.50
2023-05-02T13:21:44.770Z,98431.64
2023-05-02T13:24:17.601Z,98441.08
2023-05-02T13:26:49.648Z,98446.61
2023-05-02T13:29:21.806Z,98440.92
2023-05-02T13:31:56.466Z,98438.87
2023-05-02T13:34:28.803Z,98426.52
2023-05-02T13:37:00.894Z,98421.29
2023-05-02T13:39:33.007Z,98422.27
2023-05-02T13:42:06.217Z,98417.80
2023-05-02T13:44:38.508Z,98417.00
2023-05-02T13:47:10.592Z,98423.45
2023-05-02T13:49:42.720Z,98431.15
2023-05-02T13:52:15.003Z,98435.27
2023-05-02T13:54:49.555Z,98436.91
2023-05-02T13:57:21.993Z,98428.17
2023-05-02T13:59:54.193Z,98426.06
2023-05-02T14:02:26.341Z,98428.74
2023-05-02T14:04:58.593Z,98429.60
2023-05-02T14:07:30.671Z,98428.59
2023-05-02T14:10:05.567Z,98429.26
2023-05-02T14:12:37.782Z,98422.88
2023-05-02T14:15:11.908Z,98422.09
2023-05-02T14:17:43.949Z,98430.05
2023-05-02T14:20:16.522Z,98429.02
2023-05-02T14:22:48.810Z,98429.70
2023-05-02T14:25:20.930Z,98430.69
2023-05-02T14:27:52.993Z,98434.59
2023-05-02T14:30:25.241Z,98440.59
2023-05-02T14:32:57.443Z,98442.88
2023-05-02T14:35:29.746Z,98447.35
2023-05-02T14:38:02.075Z,98451.42
2023-05-02T14:40:34.187Z,98447.40
2023-05-02T14:43:07.305Z,98452.41
2023-05-02T14:45:41.846Z,98448.95
2023-05-02T14:48:14.298Z,98450.85
2023-05-02T14:50:49.270Z,98450.50
2023-05-02T14:53:21.572Z,98454.05
2023-05-02T14:55:54.247Z,98445.99
2023-05-02T14:58:26.620Z,98449.13
2023-05-02T15:00:59.308Z,98452.98
2023-05-02T15:03:32.132Z,98442.29
2023-05-02T15:06:06.955Z,98443.89
2023-05-02T15:08:39.482Z,98444.09
2023-05-02T15:11:11.997Z,98454.31
2023-05-02T15:13:44.022Z,98462.96
2023-05-02T15:16:16.150Z,98468.27
2023-05-02T15:18:48.246Z,98468.56
2023-05-02T15:21:20.221Z,98473.58
2023-05-02T15:23:52.715Z,98477.45
2023-05-02T15:26:26.105Z,98482.13
2023-05-02T15:29:01.524Z,98483.37
2023-05-02T15:31:34.086Z,98483.79
2023-05-02T15:34:07.228Z,98484.00
2023-05-02T15:36:40.740Z,98493.70
2023-05-02T15:39:13.177Z,98496.08
2023-05-02T15:41:47.739Z,98506.32
2023-05-02T15:44:19.779Z,98517.03
2023-05-02T15:46:51.829Z,98520.45
2023-05-02T15:49:24.981Z,98528.35
2023-05-02T15:51:57.387Z,98533.58
2023-05-02T15:54:31.872Z,98538.89
2023-05-02T15:57:03.895Z,98539.05
2023-05-02T15:59:36.379Z,98548.06
2023-05-02T16:02:08.535Z,98553.25
2023-05-02T16:04:40.952Z,98557.23
2023-05-02T16:07:13.983Z,98560.80
2023-05-02T16:09:46.484Z,98563.46
2023-05-02T16:12:18.708Z,98567.04
2023-05-02T16:14:53.290Z,98566.19
2023-05-02T16:17:25.806Z,98570.59
2023-05-02T16:19:58.299Z,98574.30
2023-05-02T16:22:30.365Z,98578.31
2023-05-02T16:25:02.683Z,98582.70
2023-05-02T16:27:35.820Z,98586.46
2023-05-02T16:30:09.893Z,98595.05
2023-05-02T16:32:42.084Z,98598.94
2023-05-02T16:35:14.586Z,98607.15
2023-05-02T16:37:46.868Z,98616.34
2023-05-02T16:40:19.471Z,98623.94
2023-05-02T16:42:51.539Z,98625.58
2023-05-02T16:45:25.533Z,98629.38
2023-05-02T16:47:57.909Z,98634.50
2023-05-02T16:50:29.953Z,98636.85
2023-05-02T16:53:02.132Z,98637.70
2023-05-02T16:55:34.611Z,98639.66
2023-05-02T16:58:06.678Z,98644.05
2023-05-02T17:00:38.660Z,98646.52
2023-05-02T17:03:11.069Z,98643.20
2023-05-02T17:05:43.178Z,98647.88
2023-05-02T17:08:17.059Z,98646.37
2023-05-02T17:10:52.680Z,98656.79
2023-05-02T17:13:24.766Z,98656.51
2023-05-02T17:15:57.566Z,98657.95
2023-05-02T17:18:29.699Z,98660.59
2023-05-02T17:21:03.852Z,98659.73
2023-05-02T17:23:36.997Z,98666.14
2023-05-02T17:26:14.399Z,98664.89
2023-05-02T17:28:46.684Z,98670.85
2023-05-02T17:31:19.405Z,98668.84
2023-05-02T17:33:52.328Z,98671.49
2023-05-02T17:36:24.304Z,98673.06
2023-05-02T17:38:56.376Z,98680.25
2023-05-02T17:41:28.967Z,98687.98
2023-05-02T17:44:01.016Z,98701.74
2023-05-02T17:46:35.147Z,98710.48
2023-05-02T17:49:07.851Z,98715.79
2023-05-02T17:51:42.057Z,98717.21
2023-05-02T17:54:14.181Z,98719.95
2023-05-02T17:56:46.369Z,98723.89
2023-05-02T17:59:21.997Z,98733.83
2023-05-02T18:01:58.548Z,98740.69
2023-05-02T18:04:31.321Z,98743.86
2023-05-02T18:07:05.685Z,98748.83
2023-05-02T18:09:38.217Z,98757.56
2023-05-02T18:12:10.404Z,98767.84
2023-05-02T18:14:43.333Z,98778.00
2023-05-02T18:17:15.423Z,98780.63
2023-05-02T18:19:48.954Z,98790.20
2023-05-02T18:22:21.971Z,98795.88
2023-05-02T18:24:54.555Z,98800.65
2023-05-02T18:27:28.617Z,98807.99
2023-05-02T18:30:01.822Z,98816.11
2023-05-02T18:32:35.941Z,98827.27
2023-05-02T18:35:11.566Z,98840.20
2023-05-02T18:37:43.610Z,98848.20
2023-05-02T18:40:16.176Z,98846.34
2023-05-02T18:42:48.109Z,98849.90
2023-05-02T18:45:21.205Z,98853.52
2023-05-02T18:47:53.487Z,98858.86
2023-05-02T18:50:26.698Z,98866.89
2023-05-02T18:52:58.930Z,98870.48
2023-05-02T18:55:32.886Z,98875.35
2023-05-02T18:58:04.951Z,98872.71
2023-05-02T19:00:37.786Z,98874.31
2023-05-02T19:03:09.851Z,98877.27
2023-05-02T19:05:43.466Z,98878.77
2023-05-02T19:08:16.190Z,98885.91
2023-05-02T19:10:48.259Z,98892.70
2023-05-02T19:13:20.869Z,98896.25
2023-05-02T19:15:52.977Z,98900.79
2023-05-02T19:18:25.098Z,98904.02
2023-05-02T19:20:57.363Z,98899.61
2023-05-02T19:23:29.467Z,98896.48
2023-05-02T19:26:02.110Z,98902.38
2023-05-02T19:28:34.300Z,98909.06
2023-05-02T19:31:11.522Z,98903.48
2023-05-02T19:33:50.226Z,98900.01
2023-05-02T19:36:23.198Z,98895.36
2023-05-02T19:38:58.177Z,98891.20
2023-05-02T19:41:30.979Z,98891.27
2023-05-02T19:44:03.082Z,98895.71
2023-05-02T19:46:35.297Z,98904.42
2023-05-02T19:49:07.402Z,98904.96
2023-05-02T19:51:42.253Z,98905.38
2023-05-02T19:54:14.539Z,98909.52
2023-05-02T19:56:48.850Z,98912.79
2023-05-02T19:59:20.964Z,98911.81
2023-05-02T20:01:53.075Z,98909.31
2023-05-02T20:04:25.967Z,98909.83
2023-05-02T20:06:58.011Z,98912.50
2023-05-02T20:09:30.066Z,98909.04
2023-05-02T20:12:02.184Z,98913.98
2023-05-02T20:14:34.438Z,98907.61
2023-05-02T20:17:06.745Z,98903.88
2023-05-02T20:19:42.547Z,98902.94
2023-05-02T20:25:25.315Z,98904.73
2023-05-02T20:27:58.889Z,98899.88
2023-05-02T20:30:31.346Z,98905.66
2023-05-02T20:33:13.932Z,98902.20
2023-05-02T20:35:54.113Z,98906.07
2023-05-02T20:38:26.156Z,98905.52
2023-05-02T20:41:01.278Z,98903.84
2023-05-02T20:43:35.503Z,98910.13
2023-05-02T20:46:12.943Z,98905.98
2023-05-02T20:48:47.056Z,98905.05
2023-05-02T20:51:35.686Z,98906.48
2023-05-02T20:54:08.181Z,98910.20
2023-05-02T20:56:40.445Z,98908.94
2023-05-02T20:59:12.674Z,98910.92
2023-05-02T21:01:44.832Z,98910.59
2023-05-02T21:04:17.094Z,98916.47
2023-05-02T21:06:53.282Z,98922.36
2023-05-02T21:09:25.702Z,98923.20
2023-05-02T21:11:57.866Z,98921.76
2023-05-02T21:14:30.033Z,98924.46
2023-05-02T21:17:02.958Z,98925.58
2023-05-02T21:19:36.060Z,98925.75
2023-05-02T21:22:08.321Z,98927.75
2023-05-02T21:24:40.452Z,98930.77
2023-05-02T21:27:12.707Z,98936.05
2023-05-02T21:29:44.838Z,98936.60
2023-05-02T21:32:17.314Z,98931.98
2023-05-02T21:34:50.597Z,98941.85
2023-05-02T21:37:24.971Z,98939.77
2023-05-02T21:39:57.289Z,98937.41
2023-05-02T21:42:29.389Z,98938.93
2023-05-02T21:45:02.061Z,98945.17
2023-05-02T21:47:35.108Z,98941.50
2023-05-02T21:50:08.564Z,98943.28
2023-05-02T21:52:40.709Z,98942.24
2023-05-02T21:55:13.291Z,98944.49
2023-05-02T21:57:45.432Z,98949.67
2023-05-02T22:00:18.629Z,98946.86
2023-05-02T22:02:51.418Z,98951.58
2023-05-02T22:05:23.921Z,98950.09
2023-05-02T22:07:57.198Z,98948.95
2023-05-02T22:10:29.727Z,98953.45
2023-05-02T22:13:01.829Z,98953.39
2023-05-02T22:15:33.993Z,98955.40
2023-05-02T22:18:07.083Z,98952.61
2023-05-02T22:20:42.372Z,98958.70
2023-05-02T22:23:15.215Z,98959.92
2023-05-02T22:25:47.459Z,98959.59
2023-05-02T22:28:19.549Z,98962.56
2023-05-02T22:30:51.636Z,98966.84
2023-05-02T22:33:23.924Z,98966.95
2023-05-02T22:35:57.061Z,98968.20
2023-05-02T22:38:29.147Z,98967.45
2023-05-02T22:41:03.357Z,98969.40
2023-05-02T22:43:35.520Z,98966.05
2023-05-02T22:46:07.730Z,98967.51
2023-05-02T22:48:39.859Z,98973.72
2023-05-02T22:51:12.079Z,98972.49
2023-05-02T22:53:44.285Z,98976.70
2023-05-02T22:56:16.425Z,98972.88
2023-05-02T22:58:50.103Z,98979.33
2023-05-02T23:01:22.432Z,98978.66
2023-05-02T23:03:54.902Z,98981.87
2023-05-02T23:06:28.869Z,98985.75
2023-05-02T23:09:01.170Z,98984.14
2023-05-02T23:11:33.295Z,98982.59
2023-05-02T23:14:05.415Z,98981.41
2023-05-02T23:16:37.734Z,98979.04
2023-05-02T23:19:09.870Z,98978.21
2023-05-02T23:21:43.254Z,98977.61
2023-05-02T23:24:15.481Z,98976.80
2023-05-02T23:26:47.866Z,98977.67
2023-05-02T23:29:20.086Z,98979.34
2023-05-02T23:31:54.564Z,98976.79
2023-05-02T23:34:29.810Z,98978.79
2023-05-02T23:37:01.921Z,98980.80
2023-05-02T23:39:34.280Z,98984.67
2023-05-02T23:42:06.822Z,98985.34
2023-05-02T23:44:39.094Z,98986.30
2023-05-02T23:47:11.427Z,98989.17
2023-05-02T23:49:43.849Z,98984.84
2023-05-02T23:52:15.959Z,98981.58
2023-05-02T23:54:50.711Z,98978.30
2023-05-02T23:57:22.854Z,98979.95
2023-05-02T23:59:55.005Z,98980.88
